createdAt,value
2018-04-06T00:00:23.615Z,961.74
2018-04-06T00:01:23.633Z,961.8
2018-04-06T00:02:23.650Z,961.8
2018-04-06T00:03:23.667Z,961.82
2018-04-06T00:04:23.690Z,961.84
2018-04-06T00:05:23.704Z,961.79
2018-04-06T00:06:23.718Z,961.81
2018-04-06T00:07:23.737Z,961.8
2018-04-06T00:08:23.824Z,961.85
2018-04-06T00:09:23.771Z,961.81
2018-04-06T00:10:23.788Z,961.82
2018-04-06T00:11:23.803Z,961.8
2018-04-06T00:12:23.823Z,961.83
2018-04-06T00:13:23.837Z,961.83
2018-04-06T00:14:23.855Z,961.79
2018-04-06T00:15:23.872Z,961.8
2018-04-06T00:16:23.885Z,961.81
2018-04-06T00:17:23.909Z,961.84
2018-04-06T00:18:23.920Z,961.81
2018-04-06T00:19:23.940Z,961.85
2018-04-06T00:20:23.956Z,961.82
2018-04-06T00:21:23.978Z,961.86
2018-04-06T00:22:23.994Z,961.84
2018-04-06T00:23:24.063Z,961.83
2018-04-06T00:24:24.025Z,961.85
2018-04-06T00:25:24.042Z,961.85
2018-04-06T00:26:24.060Z,961.85
2018-04-06T00:27:24.076Z,961.88
2018-04-06T00:28:24.124Z,961.89
2018-04-06T00:29:24.109Z,961.87
2018-04-06T00:30:24.127Z,961.86
2018-04-06T00:31:24.143Z,961.84
2018-04-06T00:32:24.160Z,961.83
2018-04-06T00:33:24.178Z,961.8
2018-04-06T00:34:24.194Z,961.78
2018-04-06T00:35:24.212Z,961.79
2018-04-06T00:36:24.228Z,961.79
2018-04-06T00:37:24.245Z,961.78
2018-04-06T00:38:24.313Z,961.79
2018-04-06T00:39:24.286Z,961.79
2018-04-06T00:40:24.297Z,961.81
2018-04-06T00:41:24.315Z,961.78
2018-04-06T00:42:24.332Z,961.83
2018-04-06T00:43:24.348Z,961.84
2018-04-06T00:44:24.366Z,961.8
2018-04-06T00:45:24.383Z,961.81
2018-04-06T00:46:24.400Z,961.79
2018-04-06T00:47:24.417Z,961.77
2018-04-06T00:48:24.434Z,961.78
2018-04-06T00:49:24.450Z,961.79
2018-04-06T00:50:24.468Z,961.78
2018-04-06T00:51:24.486Z,961.81
2018-04-06T00:52:24.503Z,961.87
2018-04-06T00:53:24.570Z,961.85
2018-04-06T00:54:24.538Z,961.9
2018-04-06T00:55:24.556Z,961.88
2018-04-06T00:56:24.577Z,961.87
2018-04-06T00:57:24.590Z,961.82
2018-04-06T00:58:24.607Z,961.82
2018-04-06T00:59:24.623Z,961.8
2018-04-06T01:00:24.640Z,961.85
2018-04-06T01:01:24.659Z,961.8
2018-04-06T01:02:24.675Z,961.83
2018-04-06T01:03:24.691Z,961.83
2018-04-06T01:04:24.709Z,961.84
2018-04-06T01:05:24.725Z,961.87
2018-04-06T01:06:24.741Z,961.88
2018-04-06T01:07:24.758Z,961.88
2018-04-06T01:08:24.826Z,961.89
2018-04-06T01:09:24.792Z,961.85
2018-04-06T01:10:24.810Z,961.84
2018-04-06T01:11:24.829Z,961.76
2018-04-06T01:12:24.848Z,961.83
2018-04-06T01:13:24.864Z,961.78
2018-04-06T01:14:24.882Z,961.8
2018-04-06T01:15:24.900Z,961.81
2018-04-06T01:16:24.917Z,961.79
2018-04-06T01:17:24.932Z,961.8
2018-04-06T01:18:25.048Z,961.75
2018-04-06T01:19:24.967Z,961.79
2018-04-06T01:20:24.984Z,961.76
2018-04-06T01:21:25.002Z,961.79
2018-04-06T01:22:25.020Z,961.73
2018-04-06T01:23:25.086Z,961.73
2018-04-06T01:24:25.053Z,961.72
2018-04-06T01:25:25.070Z,961.72
2018-04-06T01:26:25.089Z,961.76
2018-04-06T01:27:25.105Z,961.71
2018-04-06T01:28:25.271Z,961.73
2018-04-06T01:29:25.137Z,961.79
2018-04-06T01:30:25.155Z,961.78
2018-04-06T01:31:25.174Z,961.81
2018-04-06T01:32:25.191Z,961.81
2018-04-06T01:33:25.207Z,961.82
2018-04-06T01:34:25.229Z,961.84
2018-04-06T01:35:25.242Z,961.8
2018-04-06T01:36:25.258Z,961.8
2018-04-06T01:37:25.276Z,961.78
2018-04-06T01:38:25.348Z,961.81
2018-04-06T01:39:25.321Z,961.78
2018-04-06T01:40:25.327Z,961.78
2018-04-06T01:41:25.343Z,961.76
2018-04-06T01:42:25.359Z,961.77
2018-04-06T01:43:25.426Z,961.78
2018-04-06T01:44:25.395Z,961.77
2018-04-06T01:45:25.411Z,961.8
2018-04-06T01:46:25.430Z,961.81
2018-04-06T01:47:25.445Z,961.82
2018-04-06T01:48:25.463Z,961.85
2018-04-06T01:49:25.520Z,961.83
2018-04-06T01:50:25.496Z,961.86
2018-04-06T01:51:25.514Z,961.84
2018-04-06T01:52:25.531Z,961.85
2018-04-06T01:53:25.547Z,961.85
2018-04-06T01:54:25.564Z,961.9
2018-04-06T01:55:25.582Z,961.86
2018-04-06T01:56:25.652Z,961.84
2018-04-06T01:57:25.617Z,961.87
2018-04-06T01:58:25.632Z,961.85
2018-04-06T01:59:25.653Z,961.81
2018-04-06T02:00:25.667Z,961.79
2018-04-06T02:01:25.684Z,961.76
2018-04-06T02:02:25.700Z,961.76
2018-04-06T02:03:25.717Z,961.75
2018-04-06T02:04:25.735Z,961.77
2018-04-06T02:05:25.753Z,961.78
2018-04-06T02:06:25.819Z,961.83
2018-04-06T02:07:25.783Z,961.76
2018-04-06T02:08:25.803Z,961.83
2018-04-06T02:09:25.817Z,961.78
2018-04-06T02:10:25.835Z,961.77
2018-04-06T02:11:25.854Z,961.78
2018-04-06T02:12:25.871Z,961.77
2018-04-06T02:13:25.888Z,961.77
2018-04-06T02:14:25.903Z,961.77
2018-04-06T02:15:25.923Z,961.76
2018-04-06T02:16:27.140Z,961.76
2018-04-06T02:17:25.956Z,961.8
2018-04-06T02:18:25.972Z,961.76
2018-04-06T02:19:25.989Z,961.76
2018-04-06T02:20:26.006Z,961.77
2018-04-06T02:21:26.028Z,961.74
2018-04-06T02:22:26.039Z,961.74
2018-04-06T02:23:26.061Z,961.68
2018-04-06T02:24:26.089Z,961.73
2018-04-06T02:25:26.090Z,961.69
2018-04-06T02:26:26.108Z,961.72
2018-04-06T02:27:26.124Z,961.73
2018-04-06T02:28:26.142Z,961.74
2018-04-06T02:29:26.159Z,961.74
2018-04-06T02:30:26.176Z,961.76
2018-04-06T02:31:26.192Z,961.71
2018-04-06T02:32:26.209Z,961.71
2018-04-06T02:33:26.228Z,961.73
2018-04-06T02:34:26.254Z,961.7
2018-04-06T02:35:26.260Z,961.69
2018-04-06T02:36:26.279Z,961.67
2018-04-06T02:37:26.345Z,961.66
2018-04-06T02:38:26.311Z,961.67
2018-04-06T02:39:26.326Z,961.63
2018-04-06T02:40:26.344Z,961.69
2018-04-06T02:41:26.362Z,961.73
2018-04-06T02:42:26.378Z,961.74
2018-04-06T02:43:26.396Z,961.7
2018-04-06T02:44:26.412Z,961.68
2018-04-06T02:45:26.427Z,961.7
2018-04-06T02:46:26.444Z,961.68
2018-04-06T02:47:26.467Z,961.71
2018-04-06T02:48:26.480Z,961.72
2018-04-06T02:49:26.495Z,961.74
2018-04-06T02:50:26.513Z,961.71
2018-04-06T02:51:26.531Z,961.71
2018-04-06T02:52:26.596Z,961.69
2018-04-06T02:53:26.568Z,961.66
2018-04-06T02:54:26.582Z,961.65
2018-04-06T02:55:26.599Z,961.65
2018-04-06T02:56:26.612Z,961.63
2018-04-06T02:57:26.628Z,961.63
2018-04-06T02:58:26.661Z,961.63
2018-04-06T02:59:26.663Z,961.68
2018-04-06T03:00:26.680Z,961.66
2018-04-06T03:01:26.696Z,961.67
2018-04-06T03:02:26.714Z,961.68
2018-04-06T03:03:26.728Z,961.66
2018-04-06T03:04:26.748Z,961.69
2018-04-06T03:05:26.762Z,961.67
2018-04-06T03:06:26.779Z,961.68
2018-04-06T03:07:26.794Z,961.66
2018-04-06T03:08:26.860Z,961.68
2018-04-06T03:09:26.828Z,961.67
2018-04-06T03:10:26.845Z,961.66
2018-04-06T03:11:26.860Z,961.68
2018-04-06T03:12:26.876Z,961.71
2018-04-06T03:13:26.895Z,961.71
2018-04-06T03:14:26.909Z,961.64
2018-04-06T03:15:26.926Z,961.69
2018-04-06T03:16:26.941Z,961.66
2018-04-06T03:17:26.958Z,961.65
2018-04-06T03:18:26.974Z,961.69
2018-04-06T03:19:26.992Z,961.69
2018-04-06T03:20:27.011Z,961.68
2018-04-06T03:21:27.026Z,961.69
2018-04-06T03:22:27.045Z,961.7
2018-04-06T03:23:27.109Z,961.71
2018-04-06T03:24:27.075Z,961.68
2018-04-06T03:25:27.092Z,961.63
2018-04-06T03:26:27.108Z,961.61
2018-04-06T03:27:27.124Z,961.63
2018-04-06T03:28:27.141Z,961.61
2018-04-06T03:29:27.157Z,961.61
2018-04-06T03:30:27.174Z,961.61
2018-04-06T03:31:27.191Z,961.65
2018-04-06T03:32:27.211Z,961.64
2018-04-06T03:33:27.222Z,961.62
2018-04-06T03:34:27.237Z,961.63
2018-04-06T03:35:27.261Z,961.65
2018-04-06T03:36:27.273Z,961.62
2018-04-06T03:37:27.287Z,961.61
2018-04-06T03:38:27.408Z,961.61
2018-04-06T03:39:27.320Z,961.63
2018-04-06T03:40:27.337Z,961.6
2018-04-06T03:41:27.351Z,961.65
2018-04-06T03:42:27.375Z,961.62
2018-04-06T03:43:27.384Z,961.63
2018-04-06T03:44:27.400Z,961.64
2018-04-06T03:45:27.417Z,961.61
2018-04-06T03:46:27.434Z,961.62
2018-04-06T03:47:27.451Z,961.64
2018-04-06T03:48:27.466Z,961.64
2018-04-06T03:49:27.484Z,961.64
2018-04-06T03:50:27.499Z,961.64
2018-04-06T03:51:27.517Z,961.68
2018-04-06T03:52:27.531Z,961.64
2018-04-06T03:53:27.601Z,961.65
2018-04-06T03:54:27.566Z,961.59
2018-04-06T03:55:27.580Z,961.58
2018-04-06T03:56:27.623Z,961.59
2018-04-06T03:57:27.613Z,961.58
2018-04-06T03:58:27.630Z,961.54
2018-04-06T03:59:27.646Z,961.59
2018-04-06T04:00:27.663Z,961.55
2018-04-06T04:01:27.680Z,961.58
2018-04-06T04:02:27.719Z,961.51
2018-04-06T04:03:27.763Z,961.53
2018-04-06T04:04:27.730Z,961.52
2018-04-06T04:05:27.745Z,961.51
2018-04-06T04:06:27.762Z,961.49
2018-04-06T04:07:27.779Z,961.48
2018-04-06T04:08:27.846Z,961.52
2018-04-06T04:09:27.812Z,961.5
2018-04-06T04:10:27.828Z,961.52
2018-04-06T04:11:27.846Z,961.5
2018-04-06T04:12:27.861Z,961.51
2018-04-06T04:13:27.876Z,961.47
2018-04-06T04:14:27.893Z,961.46
2018-04-06T04:15:27.914Z,961.42
2018-04-06T04:16:27.927Z,961.45
2018-04-06T04:17:27.942Z,961.46
2018-04-06T04:18:27.969Z,961.45
2018-04-06T04:19:27.994Z,961.49
2018-04-06T04:20:27.993Z,961.47
2018-04-06T04:21:28.010Z,961.45
2018-04-06T04:22:28.025Z,961.45
2018-04-06T04:23:28.145Z,961.44
2018-04-06T04:24:28.058Z,961.46
2018-04-06T04:25:28.076Z,961.4
2018-04-06T04:26:28.091Z,961.41
2018-04-06T04:27:28.107Z,961.43
2018-04-06T04:28:28.123Z,961.41
2018-04-06T04:29:28.140Z,961.42
2018-04-06T04:30:28.156Z,961.42
2018-04-06T04:31:28.173Z,961.43
2018-04-06T04:32:28.188Z,961.47
2018-04-06T04:33:28.206Z,961.43
2018-04-06T04:34:28.236Z,961.44
2018-04-06T04:35:28.237Z,961.41
2018-04-06T04:36:28.253Z,961.45
2018-04-06T04:37:28.271Z,961.44
2018-04-06T04:38:28.336Z,961.44
2018-04-06T04:39:28.303Z,961.44
2018-04-06T04:40:28.318Z,961.42
2018-04-06T04:41:28.348Z,961.45
2018-04-06T04:42:28.353Z,961.45
2018-04-06T04:43:28.367Z,961.48
2018-04-06T04:44:28.383Z,961.47
2018-04-06T04:45:28.399Z,961.49
2018-04-06T04:46:28.415Z,961.55
2018-04-06T04:47:28.432Z,961.56
2018-04-06T04:48:28.448Z,961.57
2018-04-06T04:49:28.464Z,961.56
2018-04-06T04:50:28.481Z,961.57
2018-04-06T04:51:28.496Z,961.55
2018-04-06T04:52:28.512Z,961.54
2018-04-06T04:53:28.577Z,961.53
2018-04-06T04:54:28.545Z,961.54
2018-04-06T04:55:28.560Z,961.55
2018-04-06T04:56:28.579Z,961.56
2018-04-06T04:57:28.591Z,961.57
2018-04-06T04:58:28.610Z,961.62
2018-04-06T04:59:28.626Z,961.61
2018-04-06T05:00:28.641Z,961.6
2018-04-06T05:01:28.658Z,961.56
2018-04-06T05:02:28.674Z,961.63
2018-04-06T05:03:28.740Z,961.59
2018-04-06T05:04:28.706Z,961.6
2018-04-06T05:05:28.723Z,961.61
2018-04-06T05:06:28.739Z,961.59
2018-04-06T05:07:28.756Z,961.6
2018-04-06T05:08:28.819Z,961.58
2018-04-06T05:09:28.787Z,961.56
2018-04-06T05:10:28.802Z,961.54
2018-04-06T05:11:28.820Z,961.6
2018-04-06T05:12:28.834Z,961.6
2018-04-06T05:13:28.850Z,961.62
2018-04-06T05:14:28.867Z,961.64
2018-04-06T05:15:28.883Z,961.64
2018-04-06T05:16:28.900Z,961.67
2018-04-06T05:17:28.915Z,961.63
2018-04-06T05:18:28.934Z,961.63
2018-04-06T05:19:28.948Z,961.63
2018-04-06T05:20:28.966Z,961.6
2018-04-06T05:21:28.981Z,961.64
2018-04-06T05:22:28.997Z,961.63
2018-04-06T05:23:29.063Z,961.65
2018-04-06T05:24:29.106Z,961.64
2018-04-06T05:25:29.046Z,961.65
2018-04-06T05:26:29.062Z,961.63
2018-04-06T05:27:29.078Z,961.66
2018-04-06T05:28:29.103Z,961.68
2018-04-06T05:29:29.113Z,961.62
2018-04-06T05:30:29.126Z,961.68
2018-04-06T05:31:29.143Z,961.66
2018-04-06T05:32:29.160Z,961.71
2018-04-06T05:33:29.176Z,961.68
2018-04-06T05:34:29.196Z,961.7
2018-04-06T05:35:29.209Z,961.7
2018-04-06T05:36:29.225Z,961.7
2018-04-06T05:37:29.264Z,961.72
2018-04-06T05:38:29.309Z,961.73
2018-04-06T05:39:29.275Z,961.7
2018-04-06T05:40:29.292Z,961.73
2018-04-06T05:41:29.307Z,961.75
2018-04-06T05:42:29.325Z,961.73
2018-04-06T05:43:29.345Z,961.77
2018-04-06T05:44:29.356Z,961.74
2018-04-06T05:45:29.373Z,961.75
2018-04-06T05:46:29.390Z,961.79
2018-04-06T05:47:29.411Z,961.75
2018-04-06T05:48:29.423Z,961.74
2018-04-06T05:49:29.444Z,961.78
2018-04-06T05:50:29.456Z,961.75
2018-04-06T05:51:29.472Z,961.79
2018-04-06T05:52:29.489Z,961.77
2018-04-06T05:53:29.555Z,961.78
2018-04-06T05:54:29.522Z,961.84
2018-04-06T05:55:29.541Z,961.78
2018-04-06T05:56:29.554Z,961.82
2018-04-06T05:57:29.572Z,961.84
2018-04-06T05:58:29.590Z,961.8
2018-04-06T05:59:29.603Z,961.88
2018-04-06T06:00:29.621Z,961.86
2018-04-06T06:01:29.639Z,961.85
2018-04-06T06:02:29.656Z,961.87
2018-04-06T06:03:29.673Z,961.86
2018-04-06T06:04:29.688Z,961.91
2018-04-06T06:05:29.706Z,961.84
2018-04-06T06:06:29.721Z,961.91
2018-04-06T06:07:29.740Z,961.93
2018-04-06T06:08:29.755Z,961.96
2018-04-06T06:09:29.822Z,961.9
2018-04-06T06:10:29.788Z,961.9
2018-04-06T06:11:29.805Z,961.86
2018-04-06T06:12:29.821Z,961.89
2018-04-06T06:13:29.837Z,961.84
2018-04-06T06:14:29.853Z,961.87
2018-04-06T06:15:29.871Z,961.9
2018-04-06T06:16:29.886Z,961.87
2018-04-06T06:17:29.903Z,961.87
2018-04-06T06:18:29.920Z,961.83
2018-04-06T06:19:29.935Z,961.88
2018-04-06T06:20:29.955Z,961.89
2018-04-06T06:21:29.969Z,961.92
2018-04-06T06:22:29.985Z,961.91
2018-04-06T06:23:30.001Z,961.93
2018-04-06T06:24:30.068Z,961.9
2018-04-06T06:25:30.034Z,961.9
2018-04-06T06:26:30.050Z,961.88
2018-04-06T06:27:30.068Z,961.91
2018-04-06T06:28:30.082Z,961.9
2018-04-06T06:29:30.149Z,961.92
2018-04-06T06:30:30.115Z,961.88
2018-04-06T06:31:30.132Z,961.89
2018-04-06T06:32:30.147Z,961.86
2018-04-06T06:33:30.165Z,961.89
2018-04-06T06:34:30.181Z,961.88
2018-04-06T06:35:30.197Z,961.89
2018-04-06T06:36:30.216Z,961.92
2018-04-06T06:37:30.235Z,961.9
2018-04-06T06:38:30.251Z,961.91
2018-04-06T06:39:30.268Z,961.86
2018-04-06T06:40:30.287Z,961.88
2018-04-06T06:41:30.302Z,961.9
2018-04-06T06:42:30.319Z,961.92
2018-04-06T06:43:30.346Z,961.9
2018-04-06T06:44:30.354Z,961.86
2018-04-06T06:45:30.372Z,961.91
2018-04-06T06:46:30.384Z,961.95
2018-04-06T06:47:30.405Z,961.93
2018-04-06T06:48:30.423Z,961.93
2018-04-06T06:49:30.437Z,961.96
2018-04-06T06:50:30.452Z,961.93
2018-04-06T06:51:30.469Z,962
2018-04-06T06:52:30.486Z,961.99
2018-04-06T06:53:30.503Z,961.98
2018-04-06T06:54:30.522Z,961.99
2018-04-06T06:55:30.539Z,961.93
2018-04-06T06:56:30.554Z,961.91
2018-04-06T06:57:30.570Z,961.96
2018-04-06T06:58:30.589Z,961.96
2018-04-06T06:59:30.606Z,961.99
2018-04-06T07:00:30.624Z,961.93
2018-04-06T07:01:30.640Z,961.95
2018-04-06T07:02:30.657Z,961.99
2018-04-06T07:03:30.676Z,961.99
2018-04-06T07:04:30.694Z,961.98
2018-04-06T07:05:30.710Z,961.99
2018-04-06T07:06:30.727Z,961.92
2018-04-06T07:07:30.743Z,961.91
2018-04-06T07:08:30.758Z,961.89
2018-04-06T07:09:30.775Z,961.9
2018-04-06T07:10:30.794Z,961.9
2018-04-06T07:11:30.816Z,961.92
2018-04-06T07:12:30.827Z,961.85
2018-04-06T07:13:30.845Z,961.88
2018-04-06T07:14:30.863Z,961.88
2018-04-06T07:15:30.881Z,961.9
2018-04-06T07:16:30.900Z,961.86
2018-04-06T07:17:30.917Z,961.89
2018-04-06T07:18:30.934Z,961.91
2018-04-06T07:19:30.953Z,961.93
2018-04-06T07:20:30.969Z,961.93
2018-04-06T07:21:30.987Z,961.9
2018-04-06T07:22:31.006Z,961.88
2018-04-06T07:23:31.031Z,961.88
2018-04-06T07:24:31.038Z,961.91
2018-04-06T07:25:31.056Z,961.9
2018-04-06T07:26:31.073Z,961.93
2018-04-06T07:27:31.092Z,961.94
2018-04-06T07:28:31.109Z,961.96
2018-04-06T07:29:31.128Z,961.98
2018-04-06T07:30:31.144Z,961.92
2018-04-06T07:31:31.161Z,961.95
2018-04-06T07:32:31.265Z,961.93
2018-04-06T07:33:31.199Z,961.95
2018-04-06T07:34:31.214Z,961.93
2018-04-06T07:35:31.235Z,961.97
2018-04-06T07:36:31.254Z,961.93
2018-04-06T07:37:31.267Z,961.9
2018-04-06T07:38:31.298Z,961.87
2018-04-06T07:39:31.302Z,961.92
2018-04-06T07:40:31.322Z,961.84
2018-04-06T07:41:31.337Z,961.85
2018-04-06T07:42:31.358Z,961.86
2018-04-06T07:43:31.374Z,961.88
2018-04-06T07:44:31.391Z,961.91
2018-04-06T07:45:31.409Z,961.86
2018-04-06T07:46:31.425Z,961.9
2018-04-06T07:47:31.444Z,961.83
2018-04-06T07:48:31.461Z,961.89
2018-04-06T07:49:31.479Z,961.84
2018-04-06T07:50:31.499Z,961.87
2018-04-06T07:51:31.516Z,961.85
2018-04-06T07:52:31.532Z,961.89
2018-04-06T07:53:31.551Z,961.86
2018-04-06T07:54:31.573Z,961.88
2018-04-06T07:55:31.591Z,961.86
2018-04-06T07:56:31.613Z,961.89
2018-04-06T07:57:31.623Z,961.87
2018-04-06T07:58:31.642Z,961.88
2018-04-06T07:59:31.659Z,961.95
2018-04-06T08:00:31.676Z,961.93
2018-04-06T08:01:31.695Z,961.9
2018-04-06T08:02:31.714Z,961.94
2018-04-06T08:03:31.730Z,961.93
2018-04-06T08:04:31.754Z,961.92
2018-04-06T08:05:31.768Z,961.94
2018-04-06T08:06:31.787Z,961.91
2018-04-06T08:07:31.804Z,961.93
2018-04-06T08:08:31.824Z,961.92
2018-04-06T08:09:31.843Z,961.9
2018-04-06T08:10:31.860Z,961.9
2018-04-06T08:11:31.878Z,961.91
2018-04-06T08:12:31.897Z,961.88
2018-04-06T08:13:31.915Z,961.89
2018-04-06T08:14:31.938Z,961.9
2018-04-06T08:15:31.953Z,961.87
2018-04-06T08:16:31.971Z,961.92
2018-04-06T08:17:31.991Z,961.88
2018-04-06T08:18:32.014Z,961.8
2018-04-06T08:19:32.027Z,961.92
2018-04-06T08:20:32.059Z,961.88
2018-04-06T08:21:32.063Z,961.87
2018-04-06T08:22:32.083Z,961.85
2018-04-06T08:23:32.101Z,961.87
2018-04-06T08:24:32.121Z,961.86
2018-04-06T08:25:32.138Z,961.83
2018-04-06T08:26:32.158Z,961.87
2018-04-06T08:27:32.177Z,961.87
2018-04-06T08:28:32.196Z,961.91
2018-04-06T08:29:32.213Z,961.87
2018-04-06T08:30:32.232Z,961.9
2018-04-06T08:31:32.255Z,961.9
2018-04-06T08:32:32.270Z,961.85
2018-04-06T08:33:32.290Z,961.85
2018-04-06T08:34:32.307Z,961.82
2018-04-06T08:35:32.327Z,961.87
2018-04-06T08:36:32.344Z,961.84
2018-04-06T08:37:32.364Z,961.82
2018-04-06T08:38:32.384Z,961.84
2018-04-06T08:39:32.402Z,961.84
2018-04-06T08:40:32.426Z,961.86
2018-04-06T08:41:32.442Z,961.86
2018-04-06T08:42:32.459Z,961.89
2018-04-06T08:43:32.478Z,961.82
2018-04-06T08:44:32.498Z,961.85
2018-04-06T08:45:32.518Z,961.78
2018-04-06T08:46:32.536Z,961.81
2018-04-06T08:47:32.556Z,961.81
2018-04-06T08:48:32.575Z,961.8
2018-04-06T08:49:32.600Z,961.76
2018-04-06T08:50:32.619Z,961.77
2018-04-06T08:51:32.639Z,961.79
2018-04-06T08:52:32.660Z,961.78
2018-04-06T08:53:32.676Z,961.77
2018-04-06T08:54:32.695Z,961.79
2018-04-06T08:55:32.719Z,961.76
2018-04-06T08:56:32.734Z,961.77
2018-04-06T08:57:32.754Z,961.78
2018-04-06T08:58:32.774Z,961.73
2018-04-06T08:59:32.793Z,961.78
2018-04-06T09:00:32.815Z,961.71
2018-04-06T09:01:32.832Z,961.69
2018-04-06T09:02:32.853Z,961.69
2018-04-06T09:03:32.873Z,961.7
2018-04-06T09:04:32.894Z,961.7
2018-04-06T09:05:32.913Z,961.71
2018-04-06T09:06:32.933Z,961.7
2018-04-06T09:07:32.954Z,961.64
2018-04-06T09:08:32.976Z,961.69
2018-04-06T09:09:32.995Z,961.69
2018-04-06T09:10:33.017Z,961.69
2018-04-06T09:11:33.037Z,961.67
2018-04-06T09:12:33.056Z,961.67
2018-04-06T09:13:33.079Z,961.66
2018-04-06T09:14:33.121Z,961.62
2018-04-06T09:15:33.120Z,961.59
2018-04-06T09:16:33.138Z,961.59
2018-04-06T09:17:33.161Z,961.59
2018-04-06T09:18:33.181Z,961.58
2018-04-06T09:19:33.203Z,961.61
2018-04-06T09:20:33.223Z,961.56
2018-04-06T09:21:33.248Z,961.59
2018-04-06T09:22:33.267Z,961.58
2018-04-06T09:23:33.287Z,961.62
2018-04-06T09:24:33.309Z,961.54
2018-04-06T09:25:33.334Z,961.6
2018-04-06T09:26:33.356Z,961.62
2018-04-06T09:27:33.377Z,961.59
2018-04-06T09:28:33.402Z,961.6
2018-04-06T09:29:33.424Z,961.56
2018-04-06T09:30:33.447Z,961.58
2018-04-06T09:31:33.490Z,961.6
2018-04-06T09:32:33.494Z,961.5
2018-04-06T09:33:33.520Z,961.63
2018-04-06T09:34:33.584Z,961.52
2018-04-06T09:35:33.569Z,961.52
2018-04-06T09:36:33.594Z,961.48
2018-04-06T09:37:33.621Z,961.47
2018-04-06T09:38:33.639Z,961.49
2018-04-06T09:39:33.668Z,961.48
2018-04-06T09:40:33.698Z,961.41
2018-04-06T09:41:33.744Z,961.47
2018-04-06T09:42:33.746Z,961.48
2018-04-06T09:43:33.771Z,961.44
2018-04-06T09:44:33.797Z,961.43
2018-04-06T09:45:33.823Z,961.41
2018-04-06T09:46:33.850Z,961.4
2018-04-06T09:47:33.876Z,961.43
2018-04-06T09:48:33.903Z,961.4
2018-04-06T09:49:33.979Z,961.4
2018-04-06T09:50:33.956Z,961.36
2018-04-06T09:51:33.983Z,961.38
2018-04-06T09:52:34.009Z,961.39
2018-04-06T09:53:34.036Z,961.41
2018-04-06T09:54:34.067Z,961.37
2018-04-06T09:55:34.093Z,961.37
2018-04-06T09:56:34.119Z,961.44
2018-04-06T09:57:34.145Z,961.47
2018-04-06T09:58:34.175Z,961.46
2018-04-06T09:59:34.203Z,961.44
2018-04-06T10:00:34.229Z,961.43
2018-04-06T10:01:34.307Z,961.42
2018-04-06T10:02:34.286Z,961.41
2018-04-06T10:03:34.313Z,961.41
2018-04-06T10:04:34.342Z,961.33
2018-04-06T10:05:34.370Z,961.37
2018-04-06T10:06:34.448Z,961.33
2018-04-06T10:07:34.426Z,961.33
2018-04-06T10:08:34.454Z,961.32
2018-04-06T10:09:34.483Z,961.41
2018-04-06T10:10:34.513Z,961.39
2018-04-06T10:11:34.542Z,961.35
2018-04-06T10:12:34.569Z,961.3
2018-04-06T10:13:34.602Z,961.29
2018-04-06T10:14:34.632Z,961.28
2018-04-06T10:15:34.654Z,961.27
2018-04-06T10:16:34.733Z,961.22
2018-04-06T10:17:34.713Z,961.24
2018-04-06T10:18:34.740Z,961.25
2018-04-06T10:19:34.771Z,961.21
2018-04-06T10:20:34.799Z,961.21
2018-04-06T10:21:34.829Z,961.19
2018-04-06T10:22:34.856Z,961.12
2018-04-06T10:23:34.885Z,961.12
2018-04-06T10:24:34.913Z,961.19
2018-04-06T10:25:34.943Z,961.14
2018-04-06T10:26:34.972Z,961.08
2018-04-06T10:27:35.002Z,961.07
2018-04-06T10:28:35.031Z,961.15
2018-04-06T10:29:35.060Z,961.1
2018-04-06T10:30:35.089Z,961.01
2018-04-06T10:31:35.117Z,961.04
2018-04-06T10:32:35.195Z,960.97
2018-04-06T10:33:35.176Z,960.96
2018-04-06T10:34:35.204Z,960.92
2018-04-06T10:35:35.256Z,960.89
2018-04-06T10:36:35.261Z,960.9
2018-04-06T10:37:35.341Z,960.88
2018-04-06T10:38:35.322Z,960.84
2018-04-06T10:39:35.351Z,960.88
2018-04-06T10:40:35.380Z,960.86
2018-04-06T10:41:35.410Z,960.88
2018-04-06T10:42:35.439Z,960.84
2018-04-06T10:43:35.470Z,960.82
2018-04-06T10:44:35.497Z,960.84
2018-04-06T10:45:35.526Z,960.85
2018-04-06T10:46:35.556Z,960.82
2018-04-06T10:47:35.635Z,960.82
2018-04-06T10:48:35.614Z,960.86
2018-04-06T10:49:35.644Z,960.89
2018-04-06T10:50:35.673Z,960.85
2018-04-06T10:51:35.703Z,960.92
2018-04-06T10:52:35.734Z,960.86
2018-04-06T10:53:35.762Z,960.85
2018-04-06T10:54:35.792Z,960.92
2018-04-06T10:55:35.821Z,960.81
2018-04-06T10:56:35.851Z,960.81
2018-04-06T10:57:35.883Z,960.79
2018-04-06T10:58:35.925Z,960.76
2018-04-06T10:59:35.942Z,960.78
2018-04-06T11:00:35.976Z,960.81
2018-04-06T11:01:36.004Z,960.73
2018-04-06T11:02:36.084Z,960.75
2018-04-06T11:03:36.066Z,960.74
2018-04-06T11:04:36.096Z,960.74
2018-04-06T11:05:36.129Z,960.73
2018-04-06T11:06:36.158Z,960.66
2018-04-06T11:07:36.188Z,960.7
2018-04-06T11:08:36.220Z,960.73
2018-04-06T11:09:36.254Z,960.71
2018-04-06T11:10:36.282Z,960.74
2018-04-06T11:11:36.313Z,960.72
2018-04-06T11:12:36.344Z,960.71
2018-04-06T11:13:36.376Z,960.66
2018-04-06T11:14:36.406Z,960.6
2018-04-06T11:15:36.438Z,960.64
2018-04-06T11:16:36.489Z,960.61
2018-04-06T11:17:36.551Z,960.58
2018-04-06T11:18:36.533Z,960.61
2018-04-06T11:19:36.564Z,960.55
2018-04-06T11:20:36.593Z,960.54
2018-04-06T11:21:36.633Z,960.64
2018-04-06T11:22:36.657Z,960.61
2018-04-06T11:23:36.689Z,960.48
2018-04-06T11:24:36.719Z,960.44
2018-04-06T11:25:36.751Z,960.43
2018-04-06T11:26:36.783Z,960.43
2018-04-06T11:27:36.814Z,960.5
2018-04-06T11:28:36.846Z,960.51
2018-04-06T11:29:36.897Z,960.52
2018-04-06T11:30:36.907Z,960.48
2018-04-06T11:31:36.938Z,960.56
2018-04-06T11:32:37.020Z,960.53
2018-04-06T11:33:37.000Z,960.5
2018-04-06T11:34:37.034Z,960.54
2018-04-06T11:35:37.064Z,960.52
2018-04-06T11:36:37.095Z,960.61
2018-04-06T11:37:37.130Z,960.57
2018-04-06T11:38:37.160Z,960.54
2018-04-06T11:39:37.190Z,960.59
2018-04-06T11:40:37.223Z,960.57
2018-04-06T11:41:37.255Z,960.51
2018-04-06T11:42:37.289Z,960.53
2018-04-06T11:43:37.319Z,960.54
2018-04-06T11:44:37.353Z,960.49
2018-04-06T11:45:37.385Z,960.47
2018-04-06T11:46:37.415Z,960.51
2018-04-06T11:47:37.448Z,960.45
2018-04-06T11:48:37.531Z,960.45
2018-04-06T11:49:37.513Z,960.42
2018-04-06T11:50:37.545Z,960.46
2018-04-06T11:51:37.580Z,960.42
2018-04-06T11:52:37.611Z,960.45
2018-04-06T11:53:37.642Z,960.46
2018-04-06T11:54:37.675Z,960.43
2018-04-06T11:55:37.709Z,960.48
2018-04-06T11:56:37.742Z,960.39
2018-04-06T11:57:37.773Z,960.35
2018-04-06T11:58:37.808Z,960.3
2018-04-06T11:59:37.848Z,960.25
2018-04-06T12:00:37.874Z,960.31
2018-04-06T12:01:37.906Z,960.29
2018-04-06T12:02:37.970Z,960.28
2018-04-06T12:03:38.023Z,960.24
2018-04-06T12:04:38.002Z,960.25
2018-04-06T12:05:38.035Z,960.28
2018-04-06T12:06:38.070Z,960.2
2018-04-06T12:07:38.104Z,960.23
2018-04-06T12:08:38.136Z,960.24
2018-04-06T12:09:38.171Z,960.32
2018-04-06T12:10:38.201Z,960.27
2018-04-06T12:11:38.232Z,960.28
2018-04-06T12:12:38.280Z,960.27
2018-04-06T12:13:38.303Z,960.27
2018-04-06T12:14:38.332Z,960.24
2018-04-06T12:15:38.371Z,960.27
2018-04-06T12:16:38.392Z,960.22
2018-04-06T12:17:38.428Z,960.2
2018-04-06T12:18:38.512Z,960.24
2018-04-06T12:19:38.501Z,960.2
2018-04-06T12:20:38.527Z,960.24
2018-04-06T12:21:38.568Z,960.21
2018-04-06T12:22:38.601Z,960.34
2018-04-06T12:23:38.627Z,960.24
2018-04-06T12:24:38.659Z,960.2
2018-04-06T12:25:38.693Z,960.21
2018-04-06T12:26:38.727Z,960.19
2018-04-06T12:27:38.768Z,960.18
2018-04-06T12:28:38.791Z,960.12
2018-04-06T12:29:38.826Z,960.2
2018-04-06T12:30:38.862Z,960.13
2018-04-06T12:31:38.905Z,960.17